Список аэропортов
Фактическая погода:

01 марта, 22:20
Температура: +6°C (+2.6*)
Ветер: западный 5 м/с
Давление: *757 мм
неб. облачность
1350 м
разорв. обл.
2400 м
облачно
3600 м
Время (МСК)Темп. СВетерВлажностьДавлениеОблачностьОсадки
21:00+7ЮЗ, 6 м/с59%1010 гПаоблачно
22:00+7ЮЗ, 5 м/с62%1010 гПаоблачно
23:00+6ЮЗ, 3 м/с65%1010 гПаоблачносл. дождь
02 марта
00:00+6Ю, 2 м/с71%1009 гПаоблачносл. дождь
01:00+7ЮЗ, 5 м/с66%1009 гПаоблачносл. дождь
02:00+7ЮЗ, 6 м/с69%1008 гПаоблачнодождь
03:00+7ЮЗ, 7 м/с72%1008 гПаоблачносл. дождь
04:00+8ЮЗ, 8 м/с75%1008 гПаоблачнодождь
05:00+8З, 9 м/с76%1007 гПаоблачнодождь
06:00+8З, 8 м/с77%1007 гПаоблачнодождь
07:00+8З, 9 м/с78%1008 гПаоблачнодождь
08:00+8ЮЗ, 9 м/с78%1008 гПаоблачносл. дождь
09:00+8ЮЗ, 8 м/с77%1008 гПаоблачно
10:00+8ЮЗ, 8 м/с74%1009 гПаоблачно
11:00+8З, 9 м/с79%1009 гПаоблачнодождь
12:00+8З, 8 м/с75%1011 гПаоблачнодождь
13:00+8З, 10 м/с68%1012 гПаоблачносл. дождь
14:00+8З, 9 м/с52%1013 гПаоблачно
15:00+8З, 9 м/с49%1014 гПаоблачно
16:00+8З, 9 м/с48%1014 гПас прояснениями
17:00+8З, 9 м/с42%1015 гПамалооблачно
18:00+8З, 8 м/с44%1015 гПаясно
19:00+8З, 6 м/с47%1016 гПаясно
20:00+6З, 4 м/с52%1017 гПаясно
21:00+5ЮЗ, 3 м/с58%1018 гПаясно
22:00+4ЮЗ, 3 м/с62%1018 гПамалооблачно
23:00+3ЮЗ, 4 м/с64%1019 гПаясно
03 марта
00:00+3ЮЗ, 4 м/с66%1020 гПаясно
01:00+2ЮЗ, 3 м/с68%1021 гПамалооблачно
02:00+2ЮЗ, 3 м/с71%1021 гПаясно
03:00+1ЮЗ, 2 м/с74%1021 гПаясно
04:00+1ЮЗ, 2 м/с78%1021 гПамалооблачно
05:000Ю, 2 м/с81%1021 гПамалооблачно
06:00-1ЮВ, 1 м/с85%1020 гПас прояснениями
07:00-0Ю, 2 м/с85%1020 гПас прояснениями
08:00-1ЮВ, 2 м/с87%1020 гПаоблачно
09:00-1ЮВ, 2 м/с84%1019 гПаоблачно
10:00-0ЮВ, 2 м/с76%1019 гПаоблачно
11:00+2ЮВ, 3 м/с62%1017 гПаоблачно
12:00+5ЮВ, 5 м/с57%1015 гПас прояснениями
13:00+7ЮВ, 5 м/с53%1014 гПаоблачно
14:00+9ЮВ, 4 м/с50%1013 гПас прояснениями
15:00+10ЮВ, 3 м/с47%1012 гПаоблачно
16:00+12Ю, 2 м/с46%1011 гПаоблачно
17:00+13ЮВ, 2 м/с45%1009 гПаоблачно
18:00+13ЮВ, 1 м/с44%1009 гПаоблачно
19:00+13ЮВ, 2 м/с46%1008 гПас прояснениями
20:00+11В, 2 м/с56%1008 гПаоблачно
21:00+10ЮВ, 3 м/с60%1008 гПаоблачно